sensor_id;sensor_type;location;lat;lon;timestamp;pressure;altitude;pressure_sealevel;temperature;humidity
1736;BME280;865;53.672;10.250;2024-02-21T00:01:16;101323.09;;;8.13;100.00
1736;BME280;865;53.672;10.250;2024-02-21T00:03:43;101321.38;;;8.12;100.00
1736;BME280;865;53.672;10.250;2024-02-21T00:06:10;101317.06;;;8.10;100.00
1736;BME280;865;53.672;10.250;2024-02-21T00:08:36;101319.63;;;8.17;100.00
1736;BME280;865;53.672;10.250;2024-02-21T00:11:03;101319.63;;;8.17;100.00
1736;BME280;865;53.672;10.250;2024-02-21T00:13:30;101313.56;;;8.14;100.00
1736;BME280;865;53.672;10.250;2024-02-21T00:15:57;101318.78;;;8.15;100.00
1736;BME280;865;53.672;10.250;2024-02-21T00:18:23;101317.91;;;8.19;100.00
1736;BME280;865;53.672;10.250;2024-02-21T00:20:55;101310.97;;;8.11;100.00
1736;BME280;865;53.672;10.250;2024-02-21T00:23:22;101310.97;;;8.17;100.00
1736;BME280;865;53.672;10.250;2024-02-21T00:25:49;101304.03;;;8.20;100.00
1736;BME280;865;53.672;10.250;2024-02-21T00:28:16;101301.44;;;8.14;100.00
1736;BME280;865;53.672;10.250;2024-02-21T00:30:43;101299.72;;;8.16;100.00
1736;BME280;865;53.672;10.250;2024-02-21T00:33:10;101286.72;;;8.16;100.00
1736;BME280;865;53.672;10.250;2024-02-21T00:35:36;101285.84;;;8.17;100.00
1736;BME280;865;53.672;10.250;2024-02-21T00:38:03;101284.13;;;8.19;100.00
1736;BME280;865;53.672;10.250;2024-02-21T00:40:30;101278.94;;;8.18;100.00
1736;BME280;865;53.672;10.250;2024-02-21T00:42:57;101278.06;;;8.08;100.00
1736;BME280;865;53.672;10.250;2024-02-21T00:45:23;101272.00;;;8.15;100.00
1736;BME280;865;53.672;10.250;2024-02-21T00:47:50;101265.94;;;8.12;100.00
1736;BME280;865;53.672;10.250;2024-02-21T00:50:16;101263.31;;;8.12;100.00
1736;BME280;865;53.672;10.250;2024-02-21T00:52:43;101255.53;;;8.16;100.00
1736;BME280;865;53.672;10.250;2024-02-21T00:55:09;101251.22;;;8.15;100.00
1736;BME280;865;53.672;10.250;2024-02-21T00:57:36;101250.34;;;8.18;100.00
1736;BME280;865;53.672;10.250;2024-02-21T01:00:03;101246.03;;;8.15;100.00
1736;BME280;865;53.672;10.250;2024-02-21T01:02:30;101249.47;;;8.14;100.00
1736;BME280;865;53.672;10.250;2024-02-21T01:04:58;101241.69;;;8.08;100.00
1736;BME280;865;53.672;10.250;2024-02-21T01:07:24;101237.34;;;8.13;100.00
1736;BME280;865;53.672;10.250;2024-02-21T01:09:51;101226.97;;;8.10;100.00
1736;BME280;865;53.672;10.250;2024-02-21T01:12:18;101226.97;;;8.13;100.00
1736;BME280;865;53.672;10.250;2024-02-21T01:14:44;101225.25;;;8.06;100.00
1736;BME280;865;53.672;10.250;2024-02-21T01:17:12;101220.91;;;8.10;100.00
1736;BME280;865;53.672;10.250;2024-02-21T01:19:38;101213.97;;;8.13;100.00
1736;BME280;865;53.672;10.250;2024-02-21T01:22:05;101215.69;;;8.16;100.00
1736;BME280;865;53.672;10.250;2024-02-21T01:24:31;101207.91;;;8.05;100.00
1736;BME280;865;53.672;10.250;2024-02-21T01:26:58;101206.19;;;8.06;100.00
1736;BME280;865;53.672;10.250;2024-02-21T01:29:24;101197.53;;;8.10;100.00
1736;BME280;865;53.672;10.250;2024-02-21T01:31:51;101194.94;;;8.07;100.00
1736;BME280;865;53.672;10.250;2024-02-21T01:34:17;101195.78;;;8.07;100.00
1736;BME280;865;53.672;10.250;2024-02-21T01:36:44;101187.16;;;8.07;100.00
1736;BME280;865;53.672;10.250;2024-02-21T01:39:10;101192.31;;;8.05;100.00
1736;BME280;865;53.672;10.250;2024-02-21T01:41:37;101181.06;;;8.12;100.00
1736;BME280;865;53.672;10.250;2024-02-21T01:44:03;101170.69;;;8.02;100.00
1736;BME280;865;53.672;10.250;2024-02-21T01:46:30;101174.16;;;8.10;100.00
1736;BME280;865;53.672;10.250;2024-02-21T01:48:57;101168.94;;;8.05;100.00
1736;BME280;865;53.672;10.250;2024-02-21T01:51:24;101160.28;;;8.08;100.00
1736;BME280;865;53.672;10.250;2024-02-21T01:53:53;101147.31;;;8.09;100.00
1736;BME280;865;53.672;10.250;2024-02-21T01:56:19;101144.72;;;8.06;100.00
1736;BME280;865;53.672;10.250;2024-02-21T01:58:48;101123.91;;;8.11;100.00
1736;BME280;865;53.672;10.250;2024-02-21T02:01:15;101123.06;;;8.04;100.00
1736;BME280;865;53.672;10.250;2024-02-21T02:03:47;101126.53;;;7.97;100.00
1736;BME280;865;53.672;10.250;2024-02-21T02:06:14;101115.28;;;7.98;100.00
1736;BME280;865;53.672;10.250;2024-02-21T02:08:41;101118.72;;;7.97;100.00
1736;BME280;865;53.672;10.250;2024-02-21T02:11:08;101085.88;;;7.90;100.00
1736;BME280;865;53.672;10.250;2024-02-21T02:13:35;101077.16;;;7.97;100.00
1736;BME280;865;53.672;10.250;2024-02-21T02:16:02;101070.25;;;7.97;100.00
1736;BME280;865;53.672;10.250;2024-02-21T02:18:29;101063.34;;;7.93;100.00
1736;BME280;865;53.672;10.250;2024-02-21T02:20:56;101046.03;;;7.88;100.00
1736;BME280;865;53.672;10.250;2024-02-21T02:23:29;101024.38;;;7.93;100.00
1736;BME280;865;53.672;10.250;2024-02-21T02:25:55;101001.88;;;7.91;100.00
1736;BME280;865;53.672;10.250;2024-02-21T02:28:23;100973.31;;;7.89;100.00
1736;BME280;865;53.672;10.250;2024-02-21T02:30:50;100941.28;;;7.87;100.00
1736;BME280;865;53.672;10.250;2024-02-21T02:33:16;100931.78;;;7.82;100.00
1736;BME280;865;53.672;10.250;2024-02-21T02:35:46;100910.16;;;7.83;100.00
1736;BME280;865;53.672;10.250;2024-02-21T02:38:13;100917.88;;;7.93;100.00
1736;BME280;865;53.672;10.250;2024-02-21T02:40:40;100944.75;;;7.88;100.00
1736;BME280;865;53.672;10.250;2024-02-21T02:43:08;100955.13;;;7.91;100.00
1736;BME280;865;53.672;10.250;2024-02-21T02:45:35;100957.75;;;7.86;100.00
1736;BME280;865;53.672;10.250;2024-02-21T02:48:02;100983.69;;;7.91;100.00
1736;BME280;865;53.672;10.250;2024-02-21T02:50:29;100964.63;;;7.93;100.00
1736;BME280;865;53.672;10.250;2024-02-21T02:52:55;100976.78;;;7.94;100.00
1736;BME280;865;53.672;10.250;2024-02-21T02:55:22;100970.72;;;7.88;100.00
1736;BME280;865;53.672;10.250;2024-02-21T02:57:49;100963.75;;;7.96;100.00
1736;BME280;865;53.672;10.250;2024-02-21T03:00:16;100962.94;;;7.89;100.00
1736;BME280;865;53.672;10.250;2024-02-21T03:02:44;100962.91;;;7.95;100.00
1736;BME280;865;53.672;10.250;2024-02-21T03:05:14;100962.06;;;7.92;100.00
1736;BME280;865;53.672;10.250;2024-02-21T03:07:42;100964.63;;;7.93;100.00
1736;BME280;865;53.672;10.250;2024-02-21T03:10:09;100960.31;;;7.91;100.00
1736;BME280;865;53.672;10.250;2024-02-21T03:12:37;100965.50;;;7.95;100.00
1736;BME280;865;53.672;10.250;2024-02-21T03:15:04;100972.44;;;7.95;100.00
1736;BME280;865;53.672;10.250;2024-02-21T03:17:32;100975.00;;;8.01;100.00
1736;BME280;865;53.672;10.250;2024-02-21T03:20:03;100983.66;;;8.02;100.00
1736;BME280;865;53.672;10.250;2024-02-21T03:22:32;100977.56;;;8.07;100.00
1736;BME280;865;53.672;10.250;2024-02-21T03:25:01;100990.59;;;7.98;100.00
1736;BME280;865;53.672;10.250;2024-02-21T03:27:28;100989.69;;;8.05;100.00
1736;BME280;865;53.672;10.250;2024-02-21T03:29:54;100996.63;;;8.05;100.00
1736;BME280;865;53.672;10.250;2024-02-21T03:32:21;101000.91;;;8.09;100.00
1736;BME280;865;53.672;10.250;2024-02-21T03:34:47;101005.25;;;8.08;100.00
1736;BME280;865;53.672;10.250;2024-02-21T03:37:14;101012.16;;;8.15;100.00
1736;BME280;865;53.672;10.250;2024-02-21T03:39:41;101003.50;;;8.13;100.00
1736;BME280;865;53.672;10.250;2024-02-21T03:42:07;101017.41;;;8.06;100.00
1736;BME280;865;53.672;10.250;2024-02-21T03:44:34;101007.84;;;8.10;100.00
1736;BME280;865;53.672;10.250;2024-02-21T03:47:00;101012.19;;;8.12;100.00
1736;BME280;865;53.672;10.250;2024-02-21T03:49:27;101019.06;;;8.15;100.00
1736;BME280;865;53.672;10.250;2024-02-21T03:51:53;101013.88;;;8.16;100.00
1736;BME280;865;53.672;10.250;2024-02-21T03:54:20;101020.81;;;8.19;100.00
1736;BME280;865;53.672;10.250;2024-02-21T03:56:47;101019.06;;;8.16;100.00
1736;BME280;865;53.672;10.250;2024-02-21T03:59:16;101012.16;;;8.15;100.00
1736;BME280;865;53.672;10.250;2024-02-21T04:01:43;101000.88;;;8.21;100.00
1736;BME280;865;53.672;10.250;2024-02-21T04:04:10;101000.00;;;8.19;100.00
1736;BME280;865;53.672;10.250;2024-02-21T04:06:38;100986.19;;;8.15;100.00
1736;BME280;865;53.672;10.250;2024-02-21T04:09:12;100977.56;;;8.07;100.00
1736;BME280;865;53.672;10.250;2024-02-21T04:11:38;100980.13;;;8.09;100.00
1736;BME280;865;53.672;10.250;2024-02-21T04:14:04;100980.09;;;8.16;100.00
1736;BME280;865;53.672;10.250;2024-02-21T04:16:31;100977.53;;;8.13;100.00
1736;BME280;865;53.672;10.250;2024-02-21T04:18:57;100968.88;;;8.11;100.00
1736;BME280;865;53.672;10.250;2024-02-21T04:21:24;100961.13;;;8.04;100.00
1736;BME280;865;53.672;10.250;2024-02-21T04:23:51;100948.97;;;8.06;100.00
1736;BME280;865;53.672;10.250;2024-02-21T04:26:17;100949.00;;;7.99;100.00
1736;BME280;865;53.672;10.250;2024-02-21T04:28:45;100941.19;;;8.03;100.00
1736;BME280;865;53.672;10.250;2024-02-21T04:31:11;100946.41;;;7.99;100.00
1736;BME280;865;53.672;10.250;2024-02-21T04:33:38;100938.63;;;7.96;100.00
1736;BME280;865;53.672;10.250;2024-02-21T04:36:05;100939.50;;;7.97;100.00
1736;BME280;865;53.672;10.250;2024-02-21T04:38:31;100943.84;;;7.96;100.00
1736;BME280;865;53.672;10.250;2024-02-21T04:40:58;100934.28;;;8.00;100.00
1736;BME280;865;53.672;10.250;2024-02-21T04:43:25;100936.00;;;8.03;100.00
1736;BME280;865;53.672;10.250;2024-02-21T04:45:51;100937.75;;;8.02;100.00
1736;BME280;865;53.672;10.250;2024-02-21T04:48:20;100937.72;;;8.05;100.00
1736;BME280;865;53.672;10.250;2024-02-21T04:50:46;100935.19;;;7.97;100.00
1736;BME280;865;53.672;10.250;2024-02-21T04:53:13;100933.47;;;7.90;100.00
1736;BME280;865;53.672;10.250;2024-02-21T04:55:39;100929.13;;;7.94;100.00
1736;BME280;865;53.672;10.250;2024-02-21T04:58:07;100923.97;;;7.89;100.00
1736;BME280;865;53.672;10.250;2024-02-21T05:00:34;100926.56;;;7.88;100.00
1736;BME280;865;53.672;10.250;2024-02-21T05:03:00;100924.84;;;7.90;100.00
1736;BME280;865;53.672;10.250;2024-02-21T05:05:27;100915.34;;;7.86;100.00
1736;BME280;865;53.672;10.250;2024-02-21T05:07:53;100916.19;;;7.86;100.00
1736;BME280;865;53.672;10.250;2024-02-21T05:10:20;100908.31;;;7.97;100.00
1736;BME280;865;53.672;10.250;2024-02-21T05:12:47;100898.84;;;7.94;100.00
1736;BME280;865;53.672;10.250;2024-02-21T05:15:13;100902.34;;;7.89;100.00
1736;BME280;865;53.672;10.250;2024-02-21T05:17:40;100898.88;;;7.88;100.00
1736;BME280;865;53.672;10.250;2024-02-21T05:20:07;100903.22;;;7.82;100.00
1736;BME280;865;53.672;10.250;2024-02-21T05:22:33;100883.34;;;7.81;100.00
1736;BME280;865;53.672;10.250;2024-02-21T05:25:00;100885.06;;;7.82;100.00
1736;BME280;865;53.672;10.250;2024-02-21T05:27:26;100879.03;;;7.76;100.00
1736;BME280;865;53.672;10.250;2024-02-21T05:29:53;100876.41;;;7.81;100.00
1736;BME280;865;53.672;10.250;2024-02-21T05:32:20;100880.72;;;7.79;100.00
1736;BME280;865;53.672;10.250;2024-02-21T05:34:48;100868.63;;;7.81;100.00
1736;BME280;865;53.672;10.250;2024-02-21T05:37:15;100863.34;;;7.90;100.00
1736;BME280;865;53.672;10.250;2024-02-21T05:39:42;100865.97;;;7.87;100.00
1736;BME280;865;53.672;10.250;2024-02-21T05:42:09;100870.34;;;7.85;100.00
1736;BME280;865;53.672;10.250;2024-02-21T05:44:35;100863.44;;;7.78;100.00
1736;BME280;865;53.672;10.250;2024-02-21T05:47:01;100861.66;;;7.85;100.00
1736;BME280;865;53.672;10.250;2024-02-21T05:49:28;100856.50;;;7.79;100.00
1736;BME280;865;53.672;10.250;2024-02-21T05:51:54;100858.22;;;7.83;100.00
1736;BME280;865;53.672;10.250;2024-02-21T05:54:21;100854.78;;;7.81;100.00
1736;BME280;865;53.672;10.250;2024-02-21T05:56:47;100859.91;;;7.87;100.00
1736;BME280;865;53.672;10.250;2024-02-21T05:59:14;100862.44;;;8.01;100.00
1736;BME280;865;53.672;10.250;2024-02-21T06:01:40;100864.16;;;8.00;100.00
1736;BME280;865;53.672;10.250;2024-02-21T06:04:07;100871.09;;;7.98;100.00
1736;BME280;865;53.672;10.250;2024-02-21T06:06:34;100871.94;;;8.03;100.00
1736;BME280;865;53.672;10.250;2024-02-21T06:09:00;100871.91;;;8.09;100.00
1736;BME280;865;53.672;10.250;2024-02-21T06:11:28;100881.47;;;8.01;100.00
1736;BME280;865;53.672;10.250;2024-02-21T06:13:55;100880.59;;;8.02;100.00
1736;BME280;865;53.672;10.250;2024-02-21T06:16:22;100886.66;;;8.03;100.00
1736;BME280;865;53.672;10.250;2024-02-21T06:18:49;100880.63;;;7.99;100.00
1736;BME280;865;53.672;10.250;2024-02-21T06:21:15;100891.03;;;7.93;100.00
1736;BME280;865;53.672;10.250;2024-02-21T06:23:43;100892.75;;;7.97;100.00
1736;BME280;865;53.672;10.250;2024-02-21T06:26:09;100878.91;;;7.98;100.00
1736;BME280;865;53.672;10.250;2024-02-21T06:28:36;100880.66;;;7.94;100.00
1736;BME280;865;53.672;10.250;2024-02-21T06:31:02;100882.31;;;8.00;100.00
1736;BME280;865;53.672;10.250;2024-02-21T06:33:29;100873.75;;;7.92;100.00
1736;BME280;865;53.672;10.250;2024-02-21T06:35:55;100881.50;;;7.98;100.00
1736;BME280;865;53.672;10.250;2024-02-21T06:38:23;100880.56;;;8.10;100.00
1736;BME280;865;53.672;10.250;2024-02-21T06:40:49;100885.84;;;7.96;100.00
1736;BME280;865;53.672;10.250;2024-02-21T06:43:19;100884.94;;;7.97;100.00
1736;BME280;865;53.672;10.250;2024-02-21T06:45:46;100888.47;;;7.94;100.00
1736;BME280;865;53.672;10.250;2024-02-21T06:48:19;100882.34;;;7.98;100.00
1736;BME280;865;53.672;10.250;2024-02-21T06:50:46;100890.16;;;7.98;100.00
1736;BME280;865;53.672;10.250;2024-02-21T06:53:13;100895.38;;;7.92;100.00
1736;BME280;865;53.672;10.250;2024-02-21T06:55:39;100896.19;;;7.99;100.00
1736;BME280;865;53.672;10.250;2024-02-21T06:58:06;100895.31;;;8.05;100.00
1736;BME280;865;53.672;10.250;2024-02-21T07:00:34;100894.47;;;8.01;100.00
1736;BME280;865;53.672;10.250;2024-02-21T07:03:01;100894.41;;;8.07;100.00
1736;BME280;865;53.672;10.250;2024-02-21T07:05:27;100896.13;;;8.10;100.00
1736;BME280;865;53.672;10.250;2024-02-21T07:07:54;100896.03;;;8.20;100.00
1736;BME280;865;53.672;10.250;2024-02-21T07:10:21;100896.97;;;8.18;100.00
1736;BME280;865;53.672;10.250;2024-02-21T07:12:47;100903.88;;;8.14;100.00
1736;BME280;865;53.672;10.250;2024-02-21T07:15:15;100905.63;;;8.14;100.00
1736;BME280;865;53.672;10.250;2024-02-21T07:17:41;100898.72;;;8.13;100.00
1736;BME280;865;53.672;10.250;2024-02-21T07:20:08;100903.03;;;8.15;100.00
1736;BME280;865;53.672;10.250;2024-02-21T07:22:35;100907.28;;;8.22;100.00
1736;BME280;865;53.672;10.250;2024-02-21T07:25:02;100903.06;;;8.12;100.00
1736;BME280;865;53.672;10.250;2024-02-21T07:27:32;100911.63;;;8.20;100.00
1736;BME280;865;53.672;10.250;2024-02-21T07:29:59;100913.44;;;8.15;100.00
1736;BME280;865;53.672;10.250;2024-02-21T07:32:26;100922.91;;;8.21;100.00
1736;BME280;865;53.672;10.250;2024-02-21T07:34:52;100917.69;;;8.24;100.00
1736;BME280;865;53.672;10.250;2024-02-21T07:37:19;100913.38;;;8.21;100.00
1736;BME280;865;53.672;10.250;2024-02-21T07:39:46;100922.00;;;8.23;100.00
1736;BME280;865;53.672;10.250;2024-02-21T07:42:12;100928.91;;;8.26;100.00
1736;BME280;865;53.672;10.250;2024-02-21T07:44:38;100935.94;;;8.16;100.00
1736;BME280;865;53.672;10.250;2024-02-21T07:47:05;100935.94;;;8.16;100.00
1736;BME280;865;53.672;10.250;2024-02-21T07:49:40;100936.81;;;8.15;100.00
1736;BME280;865;53.672;10.250;2024-02-21T07:52:07;100936.78;;;8.17;100.00
1736;BME280;865;53.672;10.250;2024-02-21T07:54:34;100937.63;;;8.20;100.00
1736;BME280;865;53.672;10.250;2024-02-21T07:57:00;100941.03;;;8.29;100.00
1736;BME280;865;53.672;10.250;2024-02-21T07:59:27;100921.94;;;8.33;100.00
1736;BME280;865;53.672;10.250;2024-02-21T08:01:57;100923.69;;;8.29;100.00
1736;BME280;865;53.672;10.250;2024-02-21T08:04:24;100927.22;;;8.25;100.00
1736;BME280;865;53.672;10.250;2024-02-21T08:06:52;100929.84;;;8.17;100.00
1736;BME280;865;53.672;10.250;2024-02-21T08:09:19;100933.31;;;8.19;100.00
1736;BME280;865;53.672;10.250;2024-02-21T08:11:46;100930.78;;;8.10;100.00
1736;BME280;865;53.672;10.250;2024-02-21T08:14:12;100924.69;;;8.11;100.00
1736;BME280;865;53.672;10.250;2024-02-21T08:16:45;100931.69;;;8.06;100.00
1736;BME280;865;53.672;10.250;2024-02-21T08:19:12;100936.81;;;8.11;100.00
1736;BME280;865;53.672;10.250;2024-02-21T08:21:38;100933.31;;;8.21;100.00
1736;BME280;865;53.672;10.250;2024-02-21T08:24:05;100931.53;;;8.26;100.00
1736;BME280;865;53.672;10.250;2024-02-21T08:26:31;100935.84;;;8.26;100.00
1736;BME280;865;53.672;10.250;2024-02-21T08:28:58;100946.25;;;8.27;100.00
1736;BME280;865;53.672;10.250;2024-02-21T08:31:27;100938.44;;;8.30;100.00
1736;BME280;865;53.672;10.250;2024-02-21T08:33:58;100936.66;;;8.32;100.00
1736;BME280;865;53.672;10.250;2024-02-21T08:36:33;100938.44;;;8.30;100.00
1736;BME280;865;53.672;10.250;2024-02-21T08:39:00;100938.38;;;8.38;100.00
1736;BME280;865;53.672;10.250;2024-02-21T08:41:27;100934.94;;;8.34;100.00
1736;BME280;865;53.672;10.250;2024-02-21T08:44:14;100934.91;;;8.40;100.00
1736;BME280;865;53.672;10.250;2024-02-21T08:46:40;100940.94;;;8.47;100.00
1736;BME280;865;53.672;10.250;2024-02-21T08:49:07;100941.75;;;8.52;100.00
1736;BME280;865;53.672;10.250;2024-02-21T08:51:33;100944.31;;;8.58;100.00
1736;BME280;865;53.672;10.250;2024-02-21T08:54:00;100954.72;;;8.58;100.00
1736;BME280;865;53.672;10.250;2024-02-21T08:56:27;100960.75;;;8.60;100.00
1736;BME280;865;53.672;10.250;2024-02-21T08:58:56;100958.19;;;8.57;100.00
1736;BME280;865;53.672;10.250;2024-02-21T09:01:24;100966.84;;;8.56;100.00
1736;BME280;865;53.672;10.250;2024-02-21T09:03:51;100969.59;;;8.35;100.00
1736;BME280;865;53.672;10.250;2024-02-21T09:06:20;100972.09;;;8.50;100.00
1736;BME280;865;53.672;10.250;2024-02-21T09:08:46;100981.75;;;8.31;100.00
1736;BME280;865;53.672;10.250;2024-02-21T09:11:12;100988.66;;;8.34;100.00
1736;BME280;865;53.672;10.250;2024-02-21T09:13:39;100991.25;;;8.34;100.00
1736;BME280;865;53.672;10.250;2024-02-21T09:16:05;100989.50;;;8.45;100.00
1736;BME280;865;53.672;10.250;2024-02-21T09:18:32;100991.25;;;8.37;100.00
1736;BME280;865;53.672;10.250;2024-02-21T09:20:58;100993.78;;;8.48;100.00
1736;BME280;865;53.672;10.250;2024-02-21T09:23:25;100997.19;;;8.57;100.00
1736;BME280;865;53.672;10.250;2024-02-21T09:25:52;100997.31;;;8.40;100.00
1736;BME280;865;53.672;10.250;2024-02-21T09:28:18;100990.34;;;8.46;100.00
1736;BME280;865;53.672;10.250;2024-02-21T09:30:45;100992.81;;;8.62;100.00
1736;BME280;865;53.672;10.250;2024-02-21T09:33:12;100981.53;;;8.63;100.00
1736;BME280;865;53.672;10.250;2024-02-21T09:35:48;100982.41;;;8.64;100.00
1736;BME280;865;53.672;10.250;2024-02-21T09:38:15;100976.25;;;8.71;100.00
1736;BME280;865;53.672;10.250;2024-02-21T09:40:41;100985.84;;;8.67;100.00
1736;BME280;865;53.672;10.250;2024-02-21T09:43:09;100985.75;;;8.77;100.00
1736;BME280;865;53.672;10.250;2024-02-21T09:45:36;100983.22;;;8.71;100.00
1736;BME280;865;53.672;10.250;2024-02-21T09:51:10;100984.00;;;8.82;100.00
1736;BME280;865;53.672;10.250;2024-02-21T09:53:37;100988.38;;;8.74;100.00
1736;BME280;865;53.672;10.250;2024-02-21T09:56:07;100988.34;;;8.81;100.00
1736;BME280;865;53.672;10.250;2024-02-21T09:58:37;100984.84;;;8.82;100.00
1736;BME280;865;53.672;10.250;2024-02-21T10:01:04;100982.22;;;8.87;100.00
1736;BME280;865;53.672;10.250;2024-02-21T10:03:51;100982.97;;;8.98;100.00
1736;BME280;865;53.672;10.250;2024-02-21T10:06:17;100982.06;;;9.02;100.00
1736;BME280;865;53.672;10.250;2024-02-21T10:08:51;100982.00;;;9.07;100.00
1736;BME280;865;53.672;10.250;2024-02-21T10:11:24;100979.56;;;8.93;100.00
1736;BME280;865;53.672;10.250;2024-02-21T10:13:51;100982.19;;;8.90;100.00
1736;BME280;865;53.672;10.250;2024-02-21T10:16:28;100977.78;;;8.95;100.00
1736;BME280;865;53.672;10.250;2024-02-21T10:18:55;100979.56;;;8.92;100.00
1736;BME280;865;53.672;10.250;2024-02-21T10:21:21;100975.28;;;8.86;100.00
1736;BME280;865;53.672;10.250;2024-02-21T10:23:49;100977.00;;;8.87;100.00
1736;BME280;865;53.672;10.250;2024-02-21T10:26:19;100972.66;;;8.86;100.00
1736;BME280;865;53.672;10.250;2024-02-21T10:28:49;100962.22;;;8.90;100.00
1736;BME280;865;53.672;10.250;2024-02-21T10:31:23;100968.31;;;8.88;100.00
1736;BME280;865;53.672;10.250;2024-02-21T10:33:58;100965.72;;;8.89;100.00
1736;BME280;865;53.672;10.250;2024-02-21T10:36:25;100961.44;;;8.82;100.00
1736;BME280;865;53.672;10.250;2024-02-21T10:38:53;100955.44;;;8.74;100.00
1736;BME280;865;53.672;10.250;2024-02-21T10:41:22;100951.06;;;8.79;100.00
1736;BME280;865;53.672;10.250;2024-02-21T10:43:53;100945.78;;;8.87;100.00
1736;BME280;865;53.672;10.250;2024-02-21T10:46:23;100939.84;;;8.73;100.00
1736;BME280;865;53.672;10.250;2024-02-21T10:49:16;100935.47;;;8.78;100.00
1736;BME280;865;53.672;10.250;2024-02-21T10:51:49;100937.19;;;8.77;100.00
1736;BME280;865;53.672;10.250;2024-02-21T10:54:39;100921.56;;;8.80;100.00
1736;BME280;865;53.672;10.250;2024-02-21T10:57:10;100923.34;;;8.77;100.00
1736;BME280;865;53.672;10.250;2024-02-21T10:59:39;100916.59;;;8.57;100.00
1736;BME280;865;53.672;10.250;2024-02-21T11:02:06;100906.94;;;8.70;100.00
1736;BME280;865;53.672;10.250;2024-02-21T11:04:34;100900.84;;;8.71;100.00
1736;BME280;865;53.672;10.250;2024-02-21T11:07:05;100897.50;;;8.60;100.00
1736;BME280;865;53.672;10.250;2024-02-21T11:09:36;100884.31;;;8.77;100.00
1736;BME280;865;53.672;10.250;2024-02-21T11:12:04;100888.78;;;8.64;100.00
1736;BME280;865;53.672;10.250;2024-02-21T11:14:31;100886.13;;;8.70;100.00
1736;BME280;865;53.672;10.250;2024-02-21T11:16:59;100877.38;;;8.77;100.00
1736;BME280;865;53.672;10.250;2024-02-21T11:19:27;100876.56;;;8.75;100.00
1736;BME280;865;53.672;10.250;2024-02-21T11:21:56;100883.63;;;8.61;100.00
1736;BME280;865;53.672;10.250;2024-02-21T11:24:31;100878.44;;;8.56;100.00
1736;BME280;865;53.672;10.250;2024-02-21T11:27:20;100858.44;;;8.66;100.00
1736;BME280;865;53.672;10.250;2024-02-21T11:29:49;100860.13;;;8.72;100.00
1736;BME280;865;53.672;10.250;2024-02-21T11:32:19;100860.91;;;8.77;100.00
1736;BME280;865;53.672;10.250;2024-02-21T11:37:34;100864.25;;;8.91;100.00
1736;BME280;865;53.672;10.250;2024-02-21T11:40:05;100849.59;;;8.84;100.00
1736;BME280;865;53.672;10.250;2024-02-21T11:42:38;100856.59;;;8.76;100.00
1736;BME280;865;53.672;10.250;2024-02-21T11:45:05;100840.09;;;8.77;100.00
1736;BME280;865;53.672;10.250;2024-02-21T11:47:33;100840.00;;;8.86;100.00
1736;BME280;865;53.672;10.250;2024-02-21T11:49:59;100842.81;;;8.69;100.00
1736;BME280;865;53.672;10.250;2024-02-21T11:52:26;100840.94;;;8.83;100.00
1736;BME280;865;53.672;10.250;2024-02-21T11:54:54;100833.13;;;8.82;100.00
1736;BME280;865;53.672;10.250;2024-02-21T11:57:23;100831.47;;;8.75;100.00
1736;BME280;865;53.672;10.250;2024-02-21T11:59:51;100831.38;;;8.84;100.00
1736;BME280;865;53.672;10.250;2024-02-21T12:02:25;100831.41;;;8.79;100.00
1736;BME280;865;53.672;10.250;2024-02-21T12:04:51;100822.75;;;8.79;100.00
1736;BME280;865;53.672;10.250;2024-02-21T12:07:18;100825.38;;;8.76;100.00
1736;BME280;865;53.672;10.250;2024-02-21T12:09:45;100821.94;;;8.74;100.00
1736;BME280;865;53.672;10.250;2024-02-21T12:12:12;100811.53;;;8.75;100.00
1736;BME280;865;53.672;10.250;2024-02-21T12:14:38;100810.75;;;8.65;100.00
1736;BME280;865;53.672;10.250;2024-02-21T12:17:05;100802.25;;;8.51;100.00
1736;BME280;865;53.672;10.250;2024-02-21T12:19:33;100798.81;;;8.48;100.00
1736;BME280;865;53.672;10.250;2024-02-21T12:22:00;100787.34;;;8.65;100.00
1736;BME280;865;53.672;10.250;2024-02-21T12:24:28;100793.44;;;8.64;100.00
1736;BME280;865;53.672;10.250;2024-02-21T12:26:55;100801.31;;;8.60;100.00
1736;BME280;865;53.672;10.250;2024-02-21T12:29:26;100797.88;;;8.55;100.00
1736;BME280;865;53.672;10.250;2024-02-21T12:31:53;100802.31;;;8.45;100.00
1736;BME280;865;53.672;10.250;2024-02-21T12:34:21;100792.00;;;8.39;100.00
1736;BME280;865;53.672;10.250;2024-02-21T12:37:03;100790.16;;;8.47;100.00
1736;BME280;865;53.672;10.250;2024-02-21T12:39:30;100795.31;;;8.52;100.00
1736;BME280;865;53.672;10.250;2024-02-21T12:41:58;100798.00;;;8.42;100.00
1736;BME280;865;53.672;10.250;2024-02-21T12:44:24;100798.81;;;8.49;100.00
1736;BME280;865;53.672;10.250;2024-02-21T12:46:51;100790.13;;;8.50;100.00
1736;BME280;865;53.672;10.250;2024-02-21T12:49:18;100793.63;;;8.46;100.00
1736;BME280;865;53.672;10.250;2024-02-21T12:51:45;100796.28;;;8.35;100.00
1736;BME280;865;53.672;10.250;2024-02-21T12:54:14;100790.22;;;8.41;100.00
1736;BME280;865;53.672;10.250;2024-02-21T12:56:41;100785.00;;;8.38;100.00
1736;BME280;865;53.672;10.250;2024-02-21T12:59:07;100779.78;;;8.46;100.00
1736;BME280;865;53.672;10.250;2024-02-21T13:01:36;100775.47;;;8.43;100.00
1736;BME280;865;53.672;10.250;2024-02-21T13:04:02;100772.88;;;8.43;100.00
1736;BME280;865;53.672;10.250;2024-02-21T13:06:29;100769.38;;;8.44;100.00
1736;BME280;865;53.672;10.250;2024-02-21T13:08:56;100774.59;;;8.44;100.00
1736;BME280;865;53.672;10.250;2024-02-21T13:11:22;100766.00;;;8.39;100.00
1736;BME280;865;53.672;10.250;2024-02-21T13:13:53;100765.97;;;8.37;100.00
1736;BME280;865;53.672;10.250;2024-02-21T13:16:19;100763.34;;;8.42;100.00
1736;BME280;865;53.672;10.250;2024-02-21T13:18:46;100758.22;;;8.30;100.00